sensor_id;sensor_type;location;lat;lon;timestamp;P1;durP1;ratioP1;P2;durP2;ratioP2
50683;SDS011;36654;45.042;38.994;2023-08-06T00:00:38;13.48;;;7.35;;
50683;SDS011;36654;45.042;38.994;2023-08-06T00:03:04;14.70;;;7.70;;
50683;SDS011;36654;45.042;38.994;2023-08-06T00:05:30;14.77;;;7.47;;
50683;SDS011;36654;45.042;38.994;2023-08-06T00:07:55;13.57;;;7.28;;
50683;SDS011;36654;45.042;38.994;2023-08-06T00:10:21;11.02;;;7.43;;
50683;SDS011;36654;45.042;38.994;2023-08-06T00:12:47;11.43;;;7.13;;
50683;SDS011;36654;45.042;38.994;2023-08-06T00:15:13;12.93;;;7.22;;
50683;SDS011;36654;45.042;38.994;2023-08-06T00:17:39;12.60;;;7.65;;
50683;SDS011;36654;45.042;38.994;2023-08-06T00:20:05;12.50;;;6.90;;
50683;SDS011;36654;45.042;38.994;2023-08-06T00:22:32;14.27;;;7.53;;
50683;SDS011;36654;45.042;38.994;2023-08-06T00:25:01;12.77;;;7.32;;
50683;SDS011;36654;45.042;38.994;2023-08-06T00:27:28;14.82;;;7.15;;
50683;SDS011;36654;45.042;38.994;2023-08-06T00:29:54;12.73;;;6.90;;
50683;SDS011;36654;45.042;38.994;2023-08-06T00:32:20;11.63;;;7.13;;
50683;SDS011;36654;45.042;38.994;2023-08-06T00:34:46;12.23;;;6.38;;
50683;SDS011;36654;45.042;38.994;2023-08-06T00:39:39;11.98;;;7.22;;
50683;SDS011;36654;45.042;38.994;2023-08-06T00:42:05;12.55;;;6.90;;
50683;SDS011;36654;45.042;38.994;2023-08-06T00:44:31;15.70;;;7.40;;
50683;SDS011;36654;45.042;38.994;2023-08-06T00:46:56;8.38;;;5.75;;
50683;SDS011;36654;45.042;38.994;2023-08-06T00:49:22;13.63;;;6.40;;
50683;SDS011;36654;45.042;38.994;2023-08-06T00:51:48;11.45;;;6.57;;
50683;SDS011;36654;45.042;38.994;2023-08-06T00:54:15;12.02;;;5.57;;
50683;SDS011;36654;45.042;38.994;2023-08-06T00:56:41;9.82;;;6.30;;
50683;SDS011;36654;45.042;38.994;2023-08-06T00:59:07;11.35;;;6.82;;
50683;SDS011;36654;45.042;38.994;2023-08-06T01:01:34;10.25;;;6.13;;
50683;SDS011;36654;45.042;38.994;2023-08-06T01:04:00;11.48;;;5.82;;
50683;SDS011;36654;45.042;38.994;2023-08-06T01:06:48;14.27;;;6.55;;
50683;SDS011;36654;45.042;38.994;2023-08-06T01:09:30;11.75;;;6.45;;
50683;SDS011;36654;45.042;38.994;2023-08-06T01:17:35;11.43;;;6.38;;
50683;SDS011;36654;45.042;38.994;2023-08-06T01:20:01;11.48;;;6.00;;
50683;SDS011;36654;45.042;38.994;2023-08-06T01:22:27;10.07;;;6.18;;
50683;SDS011;36654;45.042;38.994;2023-08-06T01:24:52;11.18;;;6.18;;
50683;SDS011;36654;45.042;38.994;2023-08-06T01:27:30;17.45;;;6.57;;
50683;SDS011;36654;45.042;38.994;2023-08-06T01:30:10;11.05;;;6.07;;
50683;SDS011;36654;45.042;38.994;2023-08-06T01:32:42;8.02;;;5.88;;
50683;SDS011;36654;45.042;38.994;2023-08-06T01:35:10;12.70;;;6.00;;
50683;SDS011;36654;45.042;38.994;2023-08-06T01:37:37;8.98;;;5.75;;
50683;SDS011;36654;45.042;38.994;2023-08-06T01:40:13;10.93;;;6.45;;
50683;SDS011;36654;45.042;38.994;2023-08-06T01:42:39;11.82;;;6.50;;
50683;SDS011;36654;45.042;38.994;2023-08-06T01:45:06;10.48;;;6.20;;
50683;SDS011;36654;45.042;38.994;2023-08-06T01:47:33;14.57;;;6.10;;
50683;SDS011;36654;45.042;38.994;2023-08-06T01:49:58;11.40;;;6.13;;
50683;SDS011;36654;45.042;38.994;2023-08-06T01:52:24;13.77;;;6.40;;
50683;SDS011;36654;45.042;38.994;2023-08-06T01:54:50;11.18;;;6.45;;
50683;SDS011;36654;45.042;38.994;2023-08-06T01:57:15;10.55;;;6.15;;
50683;SDS011;36654;45.042;38.994;2023-08-06T01:59:41;14.30;;;6.50;;
50683;SDS011;36654;45.042;38.994;2023-08-06T02:02:06;11.15;;;6.47;;
50683;SDS011;36654;45.042;38.994;2023-08-06T02:04:32;8.52;;;5.57;;
50683;SDS011;36654;45.042;38.994;2023-08-06T02:06:58;7.82;;;5.85;;
50683;SDS011;36654;45.042;38.994;2023-08-06T02:09:23;8.48;;;6.35;;
50683;SDS011;36654;45.042;38.994;2023-08-06T02:11:49;15.20;;;6.78;;
50683;SDS011;36654;45.042;38.994;2023-08-06T02:14:15;9.00;;;6.28;;
50683;SDS011;36654;45.042;38.994;2023-08-06T02:16:40;10.35;;;6.65;;
50683;SDS011;36654;45.042;38.994;2023-08-06T02:19:06;11.38;;;6.60;;
50683;SDS011;36654;45.042;38.994;2023-08-06T02:21:31;9.85;;;6.22;;
50683;SDS011;36654;45.042;38.994;2023-08-06T02:23:57;10.80;;;6.70;;
50683;SDS011;36654;45.042;38.994;2023-08-06T02:26:23;8.90;;;6.03;;
50683;SDS011;36654;45.042;38.994;2023-08-06T02:28:48;11.60;;;6.05;;
50683;SDS011;36654;45.042;38.994;2023-08-06T02:31:14;14.23;;;6.22;;
50683;SDS011;36654;45.042;38.994;2023-08-06T02:33:39;10.40;;;6.07;;
50683;SDS011;36654;45.042;38.994;2023-08-06T02:36:05;12.25;;;6.60;;
50683;SDS011;36654;45.042;38.994;2023-08-06T02:38:31;11.80;;;6.07;;
50683;SDS011;36654;45.042;38.994;2023-08-06T02:40:57;14.35;;;6.80;;
50683;SDS011;36654;45.042;38.994;2023-08-06T02:43:23;12.90;;;6.93;;
50683;SDS011;36654;45.042;38.994;2023-08-06T02:45:49;8.77;;;5.88;;
50683;SDS011;36654;45.042;38.994;2023-08-06T02:48:14;11.80;;;6.35;;
50683;SDS011;36654;45.042;38.994;2023-08-06T02:50:40;14.18;;;6.95;;
50683;SDS011;36654;45.042;38.994;2023-08-06T02:53:07;13.02;;;6.72;;
50683;SDS011;36654;45.042;38.994;2023-08-06T02:55:33;11.85;;;6.60;;
50683;SDS011;36654;45.042;38.994;2023-08-06T02:58:02;12.75;;;6.72;;
50683;SDS011;36654;45.042;38.994;2023-08-06T03:00:28;10.65;;;6.10;;
50683;SDS011;36654;45.042;38.994;2023-08-06T03:02:53;12.00;;;6.25;;
50683;SDS011;36654;45.042;38.994;2023-08-06T03:05:19;14.35;;;6.28;;
50683;SDS011;36654;45.042;38.994;2023-08-06T03:07:45;10.50;;;6.53;;
50683;SDS011;36654;45.042;38.994;2023-08-06T03:10:10;9.73;;;6.32;;
50683;SDS011;36654;45.042;38.994;2023-08-06T03:12:36;11.43;;;6.70;;
50683;SDS011;36654;45.042;38.994;2023-08-06T03:15:02;13.18;;;6.03;;
50683;SDS011;36654;45.042;38.994;2023-08-06T03:17:27;14.93;;;6.30;;
50683;SDS011;36654;45.042;38.994;2023-08-06T03:19:53;10.38;;;6.30;;
50683;SDS011;36654;45.042;38.994;2023-08-06T03:22:19;8.18;;;6.80;;
50683;SDS011;36654;45.042;38.994;2023-08-06T03:24:44;13.88;;;6.93;;
50683;SDS011;36654;45.042;38.994;2023-08-06T03:27:10;16.35;;;6.82;;
50683;SDS011;36654;45.042;38.994;2023-08-06T03:29:35;12.95;;;7.00;;
50683;SDS011;36654;45.042;38.994;2023-08-06T03:32:01;11.13;;;6.25;;
50683;SDS011;36654;45.042;38.994;2023-08-06T03:34:27;14.00;;;6.43;;
50683;SDS011;36654;45.042;38.994;2023-08-06T03:36:53;10.52;;;6.40;;
50683;SDS011;36654;45.042;38.994;2023-08-06T03:39:18;9.80;;;6.78;;
50683;SDS011;36654;45.042;38.994;2023-08-06T03:41:44;9.75;;;5.88;;
50683;SDS011;36654;45.042;38.994;2023-08-06T03:44:10;12.43;;;6.93;;
50683;SDS011;36654;45.042;38.994;2023-08-06T03:46:35;10.30;;;6.32;;
50683;SDS011;36654;45.042;38.994;2023-08-06T03:49:01;9.98;;;6.15;;
50683;SDS011;36654;45.042;38.994;2023-08-06T03:51:26;8.52;;;6.10;;
50683;SDS011;36654;45.042;38.994;2023-08-06T03:53:52;13.20;;;6.47;;
50683;SDS011;36654;45.042;38.994;2023-08-06T03:56:18;13.18;;;6.50;;
50683;SDS011;36654;45.042;38.994;2023-08-06T03:58:43;9.98;;;5.97;;
50683;SDS011;36654;45.042;38.994;2023-08-06T04:01:09;11.50;;;6.05;;
50683;SDS011;36654;45.042;38.994;2023-08-06T04:03:34;15.50;;;6.25;;
50683;SDS011;36654;45.042;38.994;2023-08-06T04:06:02;12.30;;;6.00;;
50683;SDS011;36654;45.042;38.994;2023-08-06T04:10:53;14.73;;;6.22;;
50683;SDS011;36654;45.042;38.994;2023-08-06T04:13:19;9.48;;;6.13;;
50683;SDS011;36654;45.042;38.994;2023-08-06T04:15:45;13.18;;;6.68;;
50683;SDS011;36654;45.042;38.994;2023-08-06T04:18:12;9.45;;;6.07;;
50683;SDS011;36654;45.042;38.994;2023-08-06T04:20:47;13.60;;;6.22;;
50683;SDS011;36654;45.042;38.994;2023-08-06T04:23:14;13.23;;;6.05;;
50683;SDS011;36654;45.042;38.994;2023-08-06T04:25:40;10.82;;;5.93;;
50683;SDS011;36654;45.042;38.994;2023-08-06T04:28:06;10.45;;;5.43;;
50683;SDS011;36654;45.042;38.994;2023-08-06T04:30:32;7.20;;;5.30;;
50683;SDS011;36654;45.042;38.994;2023-08-06T04:32:58;13.70;;;6.57;;
50683;SDS011;36654;45.042;38.994;2023-08-06T04:35:24;11.95;;;5.88;;
50683;SDS011;36654;45.042;38.994;2023-08-06T04:37:49;13.45;;;5.82;;
50683;SDS011;36654;45.042;38.994;2023-08-06T04:40:15;10.82;;;6.50;;
50683;SDS011;36654;45.042;38.994;2023-08-06T04:42:41;16.90;;;6.10;;
50683;SDS011;36654;45.042;38.994;2023-08-06T04:45:06;10.50;;;5.50;;
50683;SDS011;36654;45.042;38.994;2023-08-06T04:47:32;12.82;;;6.15;;
50683;SDS011;36654;45.042;38.994;2023-08-06T04:49:58;10.93;;;5.30;;
50683;SDS011;36654;45.042;38.994;2023-08-06T04:52:23;10.60;;;6.22;;
50683;SDS011;36654;45.042;38.994;2023-08-06T04:54:52;10.77;;;5.80;;
50683;SDS011;36654;45.042;38.994;2023-08-06T04:57:18;10.18;;;5.22;;
50683;SDS011;36654;45.042;38.994;2023-08-06T04:59:44;13.20;;;6.13;;
50683;SDS011;36654;45.042;38.994;2023-08-06T05:02:09;11.45;;;6.10;;
50683;SDS011;36654;45.042;38.994;2023-08-06T05:04:35;11.80;;;5.55;;
50683;SDS011;36654;45.042;38.994;2023-08-06T05:07:00;10.45;;;6.20;;
50683;SDS011;36654;45.042;38.994;2023-08-06T05:09:26;9.70;;;5.15;;
50683;SDS011;36654;45.042;38.994;2023-08-06T05:11:52;8.45;;;6.30;;
50683;SDS011;36654;45.042;38.994;2023-08-06T05:14:17;14.40;;;5.38;;
50683;SDS011;36654;45.042;38.994;2023-08-06T05:16:43;9.77;;;6.03;;
50683;SDS011;36654;45.042;38.994;2023-08-06T05:19:08;13.93;;;5.40;;
50683;SDS011;36654;45.042;38.994;2023-08-06T05:21:34;8.95;;;5.22;;
50683;SDS011;36654;45.042;38.994;2023-08-06T05:23:59;9.98;;;6.10;;
50683;SDS011;36654;45.042;38.994;2023-08-06T05:26:25;12.02;;;5.43;;
50683;SDS011;36654;45.042;38.994;2023-08-06T05:28:51;14.13;;;5.75;;
50683;SDS011;36654;45.042;38.994;2023-08-06T05:31:16;10.45;;;5.80;;
50683;SDS011;36654;45.042;38.994;2023-08-06T05:33:42;8.25;;;5.45;;
50683;SDS011;36654;45.042;38.994;2023-08-06T05:36:07;10.45;;;6.22;;
50683;SDS011;36654;45.042;38.994;2023-08-06T05:38:33;9.63;;;5.45;;
50683;SDS011;36654;45.042;38.994;2023-08-06T05:40:59;14.27;;;6.07;;
50683;SDS011;36654;45.042;38.994;2023-08-06T05:43:24;9.73;;;5.70;;
50683;SDS011;36654;45.042;38.994;2023-08-06T05:45:50;15.40;;;5.97;;
50683;SDS011;36654;45.042;38.994;2023-08-06T05:48:16;11.95;;;4.90;;
50683;SDS011;36654;45.042;38.994;2023-08-06T05:50:41;11.80;;;5.47;;
50683;SDS011;36654;45.042;38.994;2023-08-06T05:53:07;9.57;;;5.75;;
50683;SDS011;36654;45.042;38.994;2023-08-06T05:55:33;17.25;;;5.13;;
50683;SDS011;36654;45.042;38.994;2023-08-06T05:58:00;9.48;;;4.45;;
50683;SDS011;36654;45.042;38.994;2023-08-06T06:00:26;13.60;;;5.90;;
50683;SDS011;36654;45.042;38.994;2023-08-06T06:02:52;12.75;;;6.53;;
50683;SDS011;36654;45.042;38.994;2023-08-06T06:05:17;9.57;;;5.70;;
50683;SDS011;36654;45.042;38.994;2023-08-06T06:07:43;9.55;;;4.50;;
50683;SDS011;36654;45.042;38.994;2023-08-06T06:10:08;11.38;;;4.80;;
50683;SDS011;36654;45.042;38.994;2023-08-06T06:12:34;13.88;;;5.50;;
50683;SDS011;36654;45.042;38.994;2023-08-06T06:15:00;14.30;;;4.95;;
50683;SDS011;36654;45.042;38.994;2023-08-06T06:17:26;10.63;;;4.88;;
50683;SDS011;36654;45.042;38.994;2023-08-06T06:19:52;14.32;;;5.18;;
50683;SDS011;36654;45.042;38.994;2023-08-06T06:22:19;10.80;;;5.00;;
50683;SDS011;36654;45.042;38.994;2023-08-06T06:24:45;9.35;;;4.43;;
50683;SDS011;36654;45.042;38.994;2023-08-06T06:27:11;8.52;;;3.90;;
50683;SDS011;36654;45.042;38.994;2023-08-06T06:29:36;9.15;;;4.85;;
50683;SDS011;36654;45.042;38.994;2023-08-06T06:32:02;9.95;;;4.72;;
50683;SDS011;36654;45.042;38.994;2023-08-06T06:34:28;7.45;;;4.50;;
50683;SDS011;36654;45.042;38.994;2023-08-06T06:36:53;9.20;;;4.47;;
50683;SDS011;36654;45.042;38.994;2023-08-06T06:39:19;14.43;;;4.60;;
50683;SDS011;36654;45.042;38.994;2023-08-06T06:41:46;5.10;;;4.10;;
50683;SDS011;36654;45.042;38.994;2023-08-06T06:44:12;12.25;;;4.68;;
50683;SDS011;36654;45.042;38.994;2023-08-06T06:46:38;8.95;;;5.03;;
50683;SDS011;36654;45.042;38.994;2023-08-06T06:49:04;11.57;;;4.97;;
50683;SDS011;36654;45.042;38.994;2023-08-06T06:51:29;13.02;;;4.63;;
50683;SDS011;36654;45.042;38.994;2023-08-06T06:53:57;11.55;;;4.68;;
50683;SDS011;36654;45.042;38.994;2023-08-06T06:56:23;6.38;;;4.32;;
50683;SDS011;36654;45.042;38.994;2023-08-06T06:58:48;10.07;;;5.00;;
50683;SDS011;36654;45.042;38.994;2023-08-06T07:01:14;14.38;;;4.93;;
50683;SDS011;36654;45.042;38.994;2023-08-06T07:03:39;8.13;;;4.93;;
50683;SDS011;36654;45.042;38.994;2023-08-06T07:06:06;7.80;;;3.92;;
50683;SDS011;36654;45.042;38.994;2023-08-06T07:08:32;5.70;;;4.35;;
50683;SDS011;36654;45.042;38.994;2023-08-06T07:11:04;9.63;;;4.75;;
50683;SDS011;36654;45.042;38.994;2023-08-06T07:13:31;10.80;;;4.55;;
50683;SDS011;36654;45.042;38.994;2023-08-06T07:15:58;12.43;;;4.60;;
50683;SDS011;36654;45.042;38.994;2023-08-06T07:18:24;8.55;;;4.28;;
50683;SDS011;36654;45.042;38.994;2023-08-06T07:20:50;7.93;;;4.32;;
50683;SDS011;36654;45.042;38.994;2023-08-06T07:23:16;6.97;;;4.65;;
50683;SDS011;36654;45.042;38.994;2023-08-06T07:25:43;9.40;;;4.75;;
50683;SDS011;36654;45.042;38.994;2023-08-06T07:28:09;11.05;;;4.40;;
50683;SDS011;36654;45.042;38.994;2023-08-06T07:30:38;8.95;;;4.63;;
50683;SDS011;36654;45.042;38.994;2023-08-06T07:33:04;11.07;;;4.53;;
50683;SDS011;36654;45.042;38.994;2023-08-06T07:35:29;9.13;;;4.78;;
50683;SDS011;36654;45.042;38.994;2023-08-06T07:37:55;10.77;;;4.47;;
50683;SDS011;36654;45.042;38.994;2023-08-06T07:40:22;11.23;;;4.32;;
50683;SDS011;36654;45.042;38.994;2023-08-06T07:42:48;9.82;;;4.72;;
50683;SDS011;36654;45.042;38.994;2023-08-06T07:45:13;9.05;;;4.22;;
50683;SDS011;36654;45.042;38.994;2023-08-06T07:47:39;8.55;;;4.82;;
50683;SDS011;36654;45.042;38.994;2023-08-06T07:50:05;8.48;;;5.00;;
50683;SDS011;36654;45.042;38.994;2023-08-06T07:52:31;16.35;;;5.28;;
50683;SDS011;36654;45.042;38.994;2023-08-06T07:54:57;14.98;;;6.30;;
50683;SDS011;36654;45.042;38.994;2023-08-06T07:57:22;12.13;;;5.70;;
50683;SDS011;36654;45.042;38.994;2023-08-06T07:59:48;9.82;;;6.10;;
50683;SDS011;36654;45.042;38.994;2023-08-06T08:02:14;11.85;;;4.97;;
50683;SDS011;36654;45.042;38.994;2023-08-06T08:04:39;14.32;;;6.15;;
50683;SDS011;36654;45.042;38.994;2023-08-06T08:07:05;13.30;;;5.22;;
50683;SDS011;36654;45.042;38.994;2023-08-06T08:09:30;13.18;;;5.10;;
50683;SDS011;36654;45.042;38.994;2023-08-06T08:11:56;12.68;;;5.13;;
50683;SDS011;36654;45.042;38.994;2023-08-06T08:14:22;9.50;;;4.85;;
50683;SDS011;36654;45.042;38.994;2023-08-06T08:16:48;8.13;;;5.20;;
50683;SDS011;36654;45.042;38.994;2023-08-06T08:19:14;15.38;;;5.55;;
50683;SDS011;36654;45.042;38.994;2023-08-06T08:21:39;10.45;;;4.95;;
50683;SDS011;36654;45.042;38.994;2023-08-06T08:24:05;13.15;;;5.43;;
50683;SDS011;36654;45.042;38.994;2023-08-06T08:26:30;11.98;;;5.32;;
50683;SDS011;36654;45.042;38.994;2023-08-06T08:28:56;10.23;;;4.82;;
50683;SDS011;36654;45.042;38.994;2023-08-06T08:31:22;9.25;;;5.18;;
50683;SDS011;36654;45.042;38.994;2023-08-06T08:33:47;7.78;;;4.60;;
50683;SDS011;36654;45.042;38.994;2023-08-06T08:36:13;10.02;;;4.25;;
50683;SDS011;36654;45.042;38.994;2023-08-06T08:38:39;12.52;;;5.03;;
50683;SDS011;36654;45.042;38.994;2023-08-06T08:41:04;12.82;;;4.90;;
50683;SDS011;36654;45.042;38.994;2023-08-06T08:43:31;7.95;;;4.50;;
50683;SDS011;36654;45.042;38.994;2023-08-06T08:45:56;8.73;;;4.90;;
50683;SDS011;36654;45.042;38.994;2023-08-06T08:48:24;11.02;;;4.43;;
50683;SDS011;36654;45.042;38.994;2023-08-06T08:50:50;6.35;;;3.78;;
50683;SDS011;36654;45.042;38.994;2023-08-06T08:53:17;9.25;;;4.50;;
50683;SDS011;36654;45.042;38.994;2023-08-06T08:55:43;8.98;;;3.65;;
50683;SDS011;36654;45.042;38.994;2023-08-06T08:58:12;11.27;;;4.22;;
50683;SDS011;36654;45.042;38.994;2023-08-06T09:00:38;11.82;;;3.95;;
50683;SDS011;36654;45.042;38.994;2023-08-06T09:03:06;10.20;;;4.07;;
50683;SDS011;36654;45.042;38.994;2023-08-06T09:05:33;7.72;;;3.85;;
50683;SDS011;36654;45.042;38.994;2023-08-06T09:08:03;9.23;;;3.63;;
50683;SDS011;36654;45.042;38.994;2023-08-06T09:10:29;6.75;;;3.30;;
50683;SDS011;36654;45.042;38.994;2023-08-06T09:12:56;10.48;;;3.25;;
50683;SDS011;36654;45.042;38.994;2023-08-06T09:15:26;10.75;;;3.85;;
50683;SDS011;36654;45.042;38.994;2023-08-06T09:17:53;7.22;;;3.45;;
50683;SDS011;36654;45.042;38.994;2023-08-06T09:20:19;5.93;;;3.08;;
50683;SDS011;36654;45.042;38.994;2023-08-06T09:22:45;9.80;;;4.03;;
50683;SDS011;36654;45.042;38.994;2023-08-06T09:25:13;11.55;;;4.03;;
50683;SDS011;36654;45.042;38.994;2023-08-06T09:27:46;6.97;;;3.72;;
50683;SDS011;36654;45.042;38.994;2023-08-06T09:30:12;11.80;;;3.88;;
50683;SDS011;36654;45.042;38.994;2023-08-06T09:32:56;12.25;;;4.03;;
50683;SDS011;36654;45.042;38.994;2023-08-06T09:35:22;12.70;;;4.13;;
50683;SDS011;36654;45.042;38.994;2023-08-06T09:37:47;8.18;;;3.70;;
50683;SDS011;36654;45.042;38.994;2023-08-06T09:40:29;8.95;;;3.78;;
50683;SDS011;36654;45.042;38.994;2023-08-06T09:42:56;9.70;;;3.70;;
50683;SDS011;36654;45.042;38.994;2023-08-06T09:45:23;16.83;;;4.28;;
50683;SDS011;36654;45.042;38.994;2023-08-06T09:47:56;18.35;;;4.22;;
50683;SDS011;36654;45.042;38.994;2023-08-06T09:50:23;12.73;;;3.60;;
50683;SDS011;36654;45.042;38.994;2023-08-06T09:52:54;10.63;;;3.75;;
50683;SDS011;36654;45.042;38.994;2023-08-06T09:55:21;12.30;;;3.33;;
50683;SDS011;36654;45.042;38.994;2023-08-06T09:57:47;13.40;;;3.63;;
50683;SDS011;36654;45.042;38.994;2023-08-06T10:00:13;12.80;;;3.70;;
50683;SDS011;36654;45.042;38.994;2023-08-06T10:02:39;14.35;;;4.00;;
50683;SDS011;36654;45.042;38.994;2023-08-06T10:05:06;9.68;;;3.15;;
50683;SDS011;36654;45.042;38.994;2023-08-06T10:07:33;10.50;;;4.10;;
50683;SDS011;36654;45.042;38.994;2023-08-06T10:09:59;7.45;;;3.15;;
50683;SDS011;36654;45.042;38.994;2023-08-06T10:12:26;19.88;;;4.93;;
50683;SDS011;36654;45.042;38.994;2023-08-06T10:14:59;14.57;;;3.90;;
50683;SDS011;36654;45.042;38.994;2023-08-06T10:17:27;13.50;;;3.65;;
50683;SDS011;36654;45.042;38.994;2023-08-06T10:19:54;12.50;;;4.07;;
50683;SDS011;36654;45.042;38.994;2023-08-06T10:22:21;14.75;;;3.40;;
50683;SDS011;36654;45.042;38.994;2023-08-06T10:24:52;18.23;;;4.00;;
50683;SDS011;36654;45.042;38.994;2023-08-06T10:27:20;10.82;;;3.85;;
50683;SDS011;36654;45.042;38.994;2023-08-06T10:34:56;16.55;;;3.70;;
50683;SDS011;36654;45.042;38.994;2023-08-06T10:37:35;16.70;;;4.25;;
50683;SDS011;36654;45.042;38.994;2023-08-06T10:40:02;16.00;;;4.07;;
50683;SDS011;36654;45.042;38.994;2023-08-06T10:42:28;13.15;;;3.97;;
50683;SDS011;36654;45.042;38.994;2023-08-06T10:47:40;12.57;;;3.85;;
50683;SDS011;36654;45.042;38.994;2023-08-06T10:50:16;12.00;;;4.40;;
50683;SDS011;36654;45.042;38.994;2023-08-06T10:52:43;16.10;;;3.60;;
50683;SDS011;36654;45.042;38.994;2023-08-06T10:55:10;12.93;;;3.85;;
50683;SDS011;36654;45.042;38.994;2023-08-06T10:57:35;14.68;;;3.45;;
50683;SDS011;36654;45.042;38.994;2023-08-06T11:00:03;18.92;;;4.43;;
50683;SDS011;36654;45.042;38.994;2023-08-06T11:02:34;12.60;;;4.25;;
50683;SDS011;36654;45.042;38.994;2023-08-06T11:05:05;14.75;;;3.60;;
50683;SDS011;36654;45.042;38.994;2023-08-06T11:07:31;15.32;;;3.50;;
50683;SDS011;36654;45.042;38.994;2023-08-06T11:10:03;11.60;;;3.65;;
50683;SDS011;36654;45.042;38.994;2023-08-06T11:12:30;12.23;;;4.03;;
50683;SDS011;36654;45.042;38.994;2023-08-06T11:14:56;15.40;;;4.40;;
50683;SDS011;36654;45.042;38.994;2023-08-06T11:17:22;15.27;;;3.72;;
50683;SDS011;36654;45.042;38.994;2023-08-06T11:19:48;12.85;;;3.75;;
50683;SDS011;36654;45.042;38.994;2023-08-06T11:22:17;14.57;;;4.32;;
50683;SDS011;36654;45.042;38.994;2023-08-06T11:24:43;16.33;;;4.15;;
50683;SDS011;36654;45.042;38.994;2023-08-06T11:27:12;13.75;;;4.45;;
50683;SDS011;36654;45.042;38.994;2023-08-06T11:29:40;11.88;;;3.33;;
50683;SDS011;36654;45.042;38.994;2023-08-06T11:32:07;16.92;;;4.65;;
50683;SDS011;36654;45.042;38.994;2023-08-06T11:34:35;16.83;;;4.22;;
50683;SDS011;36654;45.042;38.994;2023-08-06T11:37:04;9.00;;;4.38;;
50683;SDS011;36654;45.042;38.994;2023-08-06T11:39:36;17.50;;;4.15;;
50683;SDS011;36654;45.042;38.994;2023-08-06T11:42:06;8.95;;;3.72;;
50683;SDS011;36654;45.042;38.994;2023-08-06T11:44:33;13.30;;;3.78;;
50683;SDS011;36654;45.042;38.994;2023-08-06T11:47:01;14.50;;;4.43;;
50683;SDS011;36654;45.042;38.994;2023-08-06T11:52:19;10.77;;;4.32;;
50683;SDS011;36654;45.042;38.994;2023-08-06T11:54:58;10.43;;;3.67;;
50683;SDS011;36654;45.042;38.994;2023-08-06T11:57:24;16.88;;;3.80;;
50683;SDS011;36654;45.042;38.994;2023-08-06T11:59:51;11.35;;;3.25;;
50683;SDS011;36654;45.042;38.994;2023-08-06T12:02:20;14.27;;;4.35;;
50683;SDS011;36654;45.042;38.994;2023-08-06T12:04:58;10.70;;;3.70;;
50683;SDS011;36654;45.042;38.994;2023-08-06T12:07:30;15.30;;;3.88;;
50683;SDS011;36654;45.042;38.994;2023-08-06T12:09:57;9.98;;;4.13;;
50683;SDS011;36654;45.042;38.994;2023-08-06T12:12:24;9.23;;;3.47;;
50683;SDS011;36654;45.042;38.994;2023-08-06T12:14:50;12.38;;;3.45;;
50683;SDS011;36654;45.042;38.994;2023-08-06T12:17:16;10.50;;;3.97;;
50683;SDS011;36654;45.042;38.994;2023-08-06T12:19:43;11.95;;;3.70;;
50683;SDS011;36654;45.042;38.994;2023-08-06T12:24:35;10.00;;;3.45;;
50683;SDS011;36654;45.042;38.994;2023-08-06T12:27:00;7.00;;;3.03;;
50683;SDS011;36654;45.042;38.994;2023-08-06T12:29:28;13.50;;;3.83;;
50683;SDS011;36654;45.042;38.994;2023-08-06T12:31:53;10.25;;;3.10;;
50683;SDS011;36654;45.042;38.994;2023-08-06T12:34:19;9.35;;;3.63;;
50683;SDS011;36654;45.042;38.994;2023-08-06T12:36:45;12.25;;;3.47;;
50683;SDS011;36654;45.042;38.994;2023-08-06T12:39:10;9.10;;;3.50;;
50683;SDS011;36654;45.042;38.994;2023-08-06T12:41:36;6.95;;;3.67;;
50683;SDS011;36654;45.042;38.994;2023-08-06T12:44:01;10.82;;;3.92;;
50683;SDS011;36654;45.042;38.994;2023-08-06T12:46:27;9.68;;;3.10;;
50683;SDS011;36654;45.042;38.994;2023-08-06T12:48:53;17.00;;;3.95;;
50683;SDS011;36654;45.042;38.994;2023-08-06T12:51:18;11.07;;;3.25;;
50683;SDS011;36654;45.042;38.994;2023-08-06T12:53:44;4.90;;;3.33;;
50683;SDS011;36654;45.042;38.994;2023-08-06T12:56:10;12.27;;;3.45;;
50683;SDS011;36654;45.042;38.994;2023-08-06T12:58:35;9.75;;;5.18;;
50683;SDS011;36654;45.042;38.994;2023-08-06T13:01:01;11.50;;;3.90;;
50683;SDS011;36654;45.042;38.994;2023-08-06T13:03:27;13.63;;;3.75;;
50683;SDS011;36654;45.042;38.994;2023-08-06T13:05:52;7.88;;;3.22;;
50683;SDS011;36654;45.042;38.994;2023-08-06T13:08:19;8.88;;;3.53;;
50683;SDS011;36654;45.042;38.994;2023-08-06T13:10:45;11.20;;;3.60;;
50683;SDS011;36654;45.042;38.994;2023-08-06T13:13:11;8.00;;;3.67;;
50683;SDS011;36654;45.042;38.994;2023-08-06T13:15:36;9.20;;;3.65;;
50683;SDS011;36654;45.042;38.994;2023-08-06T13:18:03;15.65;;;3.17;;
50683;SDS011;36654;45.042;38.994;2023-08-06T13:20:30;10.20;;;3.50;;
50683;SDS011;36654;45.042;38.994;2023-08-06T13:22:57;11.65;;;3.80;;
50683;SDS011;36654;45.042;38.994;2023-08-06T13:25:26;10.68;;;4.10;;
50683;SDS011;36654;45.042;38.994;2023-08-06T13:27:53;12.02;;;3.97;;
50683;SDS011;36654;45.042;38.994;2023-08-06T13:30:19;9.63;;;4.10;;
50683;SDS011;36654;45.042;38.994;2023-08-06T13:32:45;7.38;;;3.60;;
50683;SDS011;36654;45.042;38.994;2023-08-06T13:35:11;12.38;;;4.95;;
50683;SDS011;36654;45.042;38.994;2023-08-06T13:37:37;7.57;;;4.07;;
50683;SDS011;36654;45.042;38.994;2023-08-06T13:40:03;8.95;;;3.80;;
50683;SDS011;36654;45.042;38.994;2023-08-06T13:42:29;8.02;;;3.90;;
50683;SDS011;36654;45.042;38.994;2023-08-06T13:44:55;13.70;;;3.67;;
50683;SDS011;36654;45.042;38.994;2023-08-06T13:47:27;7.78;;;3.63;;
50683;SDS011;36654;45.042;38.994;2023-08-06T13:49:53;13.65;;;4.82;;
50683;SDS011;36654;45.042;38.994;2023-08-06T13:52:18;7.43;;;3.63;;
50683;SDS011;36654;45.042;38.994;2023-08-06T13:54:45;9.65;;;3.90;;
50683;SDS011;36654;45.042;38.994;2023-08-06T13:57:11;12.43;;;3.83;;
50683;SDS011;36654;45.042;38.994;2023-08-06T13:59:37;6.65;;;3.08;;
50683;SDS011;36654;45.042;38.994;2023-08-06T14:02:03;7.47;;;3.55;;
50683;SDS011;36654;45.042;38.994;2023-08-06T14:04:29;6.35;;;4.28;;
50683;SDS011;36654;45.042;38.994;2023-08-06T14:06:54;8.45;;;3.55;;
50683;SDS011;36654;45.042;38.994;2023-08-06T14:09:20;14.35;;;3.20;;
50683;SDS011;36654;45.042;38.994;2023-08-06T14:11:46;11.85;;;3.45;;
50683;SDS011;36654;45.042;38.994;2023-08-06T14:14:11;13.25;;;3.15;;
50683;SDS011;36654;45.042;38.994;2023-08-06T14:16:37;10.07;;;3.85;;
50683;SDS011;36654;45.042;38.994;2023-08-06T14:19:03;7.57;;;3.28;;
50683;SDS011;36654;45.042;38.994;2023-08-06T14:21:29;7.47;;;3.33;;
50683;SDS011;36654;45.042;38.994;2023-08-06T14:23:54;5.97;;;3.42;;
50683;SDS011;36654;45.042;38.994;2023-08-06T14:26:20;7.03;;;3.45;;
50683;SDS011;36654;45.042;38.994;2023-08-06T14:28:45;13.95;;;4.18;;
50683;SDS011;36654;45.042;38.994;2023-08-06T14:31:11;12.82;;;3.58;;
50683;SDS011;36654;45.042;38.994;2023-08-06T14:33:37;10.57;;;3.42;;
50683;SDS011;36654;45.042;38.994;2023-08-06T14:36:03;12.38;;;3.95;;
50683;SDS011;36654;45.042;38.994;2023-08-06T14:38:29;9.18;;;3.53;;
50683;SDS011;36654;45.042;38.994;2023-08-06T14:40:54;11.05;;;3.83;;
50683;SDS011;36654;45.042;38.994;2023-08-06T14:43:20;7.07;;;3.53;;
50683;SDS011;36654;45.042;38.994;2023-08-06T14:45:45;12.65;;;4.07;;